Terminal Aerodrome Forecast
Issued by NWS

Home | Current Version | Previous Version | Text Only | Print | Product List | Glossary Off
Versions: 1 2 3 4 5 6 7 8 9 10 11 12 13 14 15 16 17 18 19 20 21 22 23 24 25 26 27 28 29 30 31 32 33

000
FTUS43 KLOT 182300
TAFDPA
TAF
KDPA 182330Z 1900/1924 06008KT P6SM FEW030
     FM190200 07003KT P6SM FEW030
     FM190700 13003KT 3SM BR FEW012
     FM191400 17009KT P6SM SCT250
     FM191700 18012G18KT P6SM SCT250=

USA.gov is the U.S. government's official web portal to all federal, state and local government web resources and services.